createdAt,value
2022-09-24T00:01:39.119Z,13.00
2022-09-24T00:04:09.713Z,13.02
2022-09-24T00:06:43.067Z,14.85
2022-09-24T00:09:11.613Z,14.65
2022-09-24T00:11:39.206Z,16.90
2022-09-24T00:14:07.462Z,19.33
2022-09-24T00:16:35.294Z,19.35
2022-09-24T00:19:04.324Z,18.02
2022-09-24T00:21:34.152Z,19.40
2022-09-24T00:24:04.694Z,18.38
2022-09-24T00:26:49.501Z,17.30
2022-09-24T00:29:22.023Z,17.30
2022-09-24T00:31:50.974Z,16.60
2022-09-24T00:34:18.927Z,17.70
2022-09-24T00:36:46.906Z,20.48
2022-09-24T00:39:15.391Z,19.52
2022-09-24T00:41:45.410Z,19.70
2022-09-24T00:44:54.711Z,19.63
2022-09-24T00:47:28.874Z,18.13
2022-09-24T00:50:04.724Z,18.75
2022-09-24T00:52:33.991Z,17.90
2022-09-24T00:55:01.189Z,22.05
2022-09-24T00:57:28.928Z,20.55
2022-09-24T00:59:56.560Z,17.73
2022-09-24T01:02:24.455Z,16.75
2022-09-24T01:04:56.197Z,17.63
2022-09-24T01:07:24.036Z,18.00
2022-09-24T01:09:51.031Z,17.80
2022-09-24T01:12:38.428Z,17.50
2022-09-24T01:15:33.120Z,18.05
2022-09-24T01:18:06.036Z,19.15
2022-09-24T01:20:57.707Z,18.80
2022-09-24T01:23:47.794Z,19.30
2022-09-24T01:26:55.660Z,18.58
2022-09-24T01:29:49.651Z,19.60
2022-09-24T01:32:38.267Z,17.70
2022-09-24T01:35:22.093Z,17.88
2022-09-24T01:37:54.127Z,18.33
2022-09-24T01:40:25.182Z,17.02
2022-09-24T01:42:55.008Z,17.95
2022-09-24T01:45:22.363Z,17.55
2022-09-24T01:47:50.129Z,17.13
2022-09-24T01:50:19.279Z,17.73
2022-09-24T01:52:52.019Z,17.45
2022-09-24T01:55:24.569Z,16.65
2022-09-24T01:58:07.977Z,16.92
2022-09-24T02:00:41.431Z,17.90
2022-09-24T02:03:16.088Z,17.35
2022-09-24T02:06:03.884Z,16.80
2022-09-24T02:08:39.209Z,17.38
2022-09-24T02:11:08.600Z,17.02
2022-09-24T02:13:40.296Z,18.73
2022-09-24T02:16:11.925Z,18.60
2022-09-24T02:18:42.880Z,19.30
2022-09-24T02:21:13.333Z,18.63
2022-09-24T02:23:45.595Z,18.05
2022-09-24T02:26:12.971Z,18.73
2022-09-24T02:28:41.995Z,18.88
2022-09-24T02:31:14.440Z,21.15
2022-09-24T02:34:03.143Z,20.75
2022-09-24T02:36:30.664Z,20.80
2022-09-24T02:38:57.801Z,21.17
2022-09-24T02:41:25.660Z,21.15
2022-09-24T02:43:52.830Z,21.02
2022-09-24T02:46:20.159Z,21.42
2022-09-24T02:48:47.624Z,20.23
2022-09-24T02:51:14.630Z,20.17
2022-09-24T02:53:41.717Z,19.48
2022-09-24T02:56:08.965Z,19.15
2022-09-24T02:58:37.513Z,20.00
2022-09-24T03:01:05.921Z,20.38
2022-09-24T03:03:32.784Z,20.13
2022-09-24T03:05:59.733Z,22.77
2022-09-24T03:08:27.215Z,19.63
2022-09-24T03:10:56.075Z,21.60
2022-09-24T03:13:23.443Z,21.05
2022-09-24T03:15:50.706Z,20.20
2022-09-24T03:18:17.595Z,21.58
2022-09-24T03:20:44.633Z,20.25
2022-09-24T03:23:11.680Z,21.80
2022-09-24T03:25:38.651Z,19.58
2022-09-24T03:28:05.552Z,21.70
2022-09-24T03:30:51.014Z,20.58
2022-09-24T03:33:18.090Z,21.55
2022-09-24T03:35:45.097Z,21.63
2022-09-24T03:38:11.916Z,22.40
2022-09-24T03:40:38.775Z,21.98
2022-09-24T03:43:05.806Z,23.23
2022-09-24T03:45:33.101Z,23.63
2022-09-24T03:48:00.194Z,21.23
2022-09-24T03:50:27.161Z,20.73
2022-09-24T03:52:54.006Z,21.50
2022-09-24T03:55:20.815Z,20.80
2022-09-24T03:57:47.903Z,21.88
2022-09-24T04:00:14.941Z,21.33
2022-09-24T04:02:42.678Z,21.50
2022-09-24T04:05:09.860Z,21.70
2022-09-24T04:07:36.621Z,19.92
2022-09-24T04:10:03.793Z,20.33
2022-09-24T04:12:31.266Z,20.40
2022-09-24T04:14:58.087Z,19.73
2022-09-24T04:17:29.098Z,20.75
2022-09-24T04:19:56.909Z,20.95
2022-09-24T04:22:25.000Z,20.25
2022-09-24T04:24:52.663Z,22.10
2022-09-24T04:27:20.578Z,20.55
2022-09-24T04:29:47.460Z,22.15
2022-09-24T04:32:14.351Z,21.30
2022-09-24T04:34:41.365Z,22.70
2022-09-24T04:37:09.945Z,23.45
2022-09-24T04:39:36.863Z,22.08
2022-09-24T04:42:04.221Z,23.77
2022-09-24T04:44:31.109Z,22.55
2022-09-24T04:47:02.290Z,21.33
2022-09-24T04:49:29.773Z,20.83
2022-09-24T04:51:58.206Z,20.13
2022-09-24T04:54:25.571Z,19.60
2022-09-24T04:56:52.627Z,19.83
2022-09-24T04:59:19.470Z,18.27
2022-09-24T05:01:47.201Z,18.27
2022-09-24T05:04:14.269Z,18.65
2022-09-24T05:06:41.638Z,18.95
2022-09-24T05:09:12.384Z,18.45
2022-09-24T05:11:39.818Z,18.15
2022-09-24T05:14:07.131Z,17.95
2022-09-24T05:16:34.194Z,17.83
2022-09-24T05:19:02.108Z,18.15
2022-09-24T05:21:29.007Z,19.60
2022-09-24T05:23:55.883Z,19.33
2022-09-24T05:26:41.667Z,19.98
2022-09-24T05:29:08.585Z,18.90
2022-09-24T05:31:36.848Z,19.75
2022-09-24T05:34:03.927Z,19.13
2022-09-24T05:36:31.339Z,16.83
2022-09-24T05:38:58.287Z,17.17
2022-09-24T05:41:25.276Z,17.73
2022-09-24T05:43:52.102Z,17.90
2022-09-24T05:46:19.097Z,16.90
2022-09-24T05:48:45.972Z,14.77
2022-09-24T05:51:12.922Z,16.00
2022-09-24T05:53:39.852Z,14.80
2022-09-24T05:56:06.907Z,14.38
2022-09-24T05:58:33.865Z,13.95
2022-09-24T06:01:01.720Z,14.07
2022-09-24T06:03:32.325Z,12.90
2022-09-24T06:06:02.353Z,12.63
2022-09-24T06:08:33.128Z,12.15
2022-09-24T06:11:01.147Z,12.25
2022-09-24T06:13:29.074Z,12.43
2022-09-24T06:16:04.444Z,10.77
2022-09-24T06:18:35.022Z,10.48
2022-09-24T06:21:03.968Z,10.97
2022-09-24T06:23:35.107Z,10.00
2022-09-24T06:26:02.453Z,10.20
2022-09-24T06:28:29.653Z,9.32
2022-09-24T06:31:00.419Z,10.75
2022-09-24T06:33:28.147Z,9.07
2022-09-24T06:35:55.107Z,13.75
2022-09-24T06:38:22.031Z,15.18
2022-09-24T06:40:48.850Z,15.05
2022-09-24T06:43:18.121Z,14.85
2022-09-24T06:45:45.614Z,14.52
2022-09-24T06:48:14.190Z,15.50
2022-09-24T06:50:43.379Z,18.38
2022-09-24T06:53:11.940Z,15.02
2022-09-24T06:55:39.456Z,15.52
2022-09-24T06:58:20.065Z,15.10
2022-09-24T07:00:54.946Z,14.30
2022-09-24T07:03:22.446Z,13.68
2022-09-24T07:05:49.463Z,12.73
2022-09-24T07:08:17.354Z,13.45
2022-09-24T07:10:46.023Z,14.20
2022-09-24T07:13:14.239Z,12.98
2022-09-24T07:15:42.630Z,13.90
2022-09-24T07:18:10.557Z,12.25
2022-09-24T07:20:37.847Z,12.95
2022-09-24T07:23:05.826Z,12.43
2022-09-24T07:25:33.712Z,12.82
2022-09-24T07:28:05.560Z,13.32
2022-09-24T07:30:33.873Z,13.60
2022-09-24T07:33:01.671Z,14.25
2022-09-24T07:35:29.402Z,12.52
2022-09-24T07:38:00.554Z,14.68
2022-09-24T07:40:28.862Z,13.75
2022-09-24T07:42:56.101Z,13.85
2022-09-24T07:45:25.018Z,13.43
2022-09-24T07:47:57.815Z,14.05
2022-09-24T07:50:25.557Z,14.07
2022-09-24T07:52:52.526Z,13.40
2022-09-24T07:55:19.648Z,13.70
2022-09-24T07:57:48.606Z,14.18
2022-09-24T08:00:17.569Z,13.32
2022-09-24T08:02:45.975Z,12.32
2022-09-24T08:05:15.201Z,10.80
2022-09-24T08:07:42.830Z,11.32
2022-09-24T08:10:10.158Z,10.50
2022-09-24T08:12:37.615Z,10.45
2022-09-24T08:15:04.833Z,10.13
2022-09-24T08:17:31.859Z,10.50
2022-09-24T08:19:58.817Z,10.20
2022-09-24T08:22:26.459Z,10.57
2022-09-24T08:24:53.562Z,8.57
2022-09-24T08:27:20.564Z,9.50
2022-09-24T08:29:47.627Z,9.15
2022-09-24T08:32:15.056Z,10.07
2022-09-24T08:34:41.898Z,9.07
2022-09-24T08:37:08.812Z,8.40
2022-09-24T08:39:35.853Z,8.80
2022-09-24T08:42:06.624Z,8.55
2022-09-24T08:44:59.391Z,8.00
2022-09-24T08:47:37.804Z,8.52
2022-09-24T08:50:09.963Z,8.85
2022-09-24T08:52:42.726Z,7.30
2022-09-24T08:55:21.650Z,6.88
2022-09-24T08:58:08.917Z,5.53
2022-09-24T09:00:44.076Z,6.32
2022-09-24T09:03:42.405Z,5.53
2022-09-24T09:06:15.172Z,4.75
2022-09-24T09:09:13.113Z,5.13
2022-09-24T09:11:44.232Z,5.90
2022-09-24T09:17:01.432Z,4.03
2022-09-24T09:19:33.980Z,3.50
2022-09-24T09:22:08.193Z,2.72
2022-09-24T09:24:44.399Z,2.60
2022-09-24T09:27:14.866Z,2.10
2022-09-24T09:29:56.255Z,2.47
2022-09-24T09:33:00.579Z,1.73
2022-09-24T09:35:59.457Z,3.25
2022-09-24T09:38:49.430Z,3.20
2022-09-24T09:41:31.750Z,2.00
2022-09-24T09:44:02.816Z,2.17
2022-09-24T09:46:37.800Z,2.95
2022-09-24T09:49:07.248Z,1.92
2022-09-24T09:51:39.201Z,1.95
2022-09-24T09:56:42.007Z,2.50
2022-09-24T09:59:19.328Z,2.13
2022-09-24T10:01:49.146Z,2.15
2022-09-24T10:04:32.417Z,2.70
2022-09-24T10:07:07.987Z,2.22
2022-09-24T10:09:35.585Z,2.50
2022-09-24T10:12:08.961Z,2.50
2022-09-24T10:14:36.253Z,2.83
2022-09-24T10:17:05.829Z,2.08
2022-09-24T10:19:36.581Z,2.35
2022-09-24T10:22:37.093Z,2.80
2022-09-24T10:25:04.532Z,2.60
2022-09-24T10:27:35.576Z,2.70
2022-09-24T10:30:30.792Z,2.17
2022-09-24T10:32:59.639Z,2.75
2022-09-24T10:35:38.693Z,2.58
2022-09-24T10:38:18.831Z,2.50
2022-09-24T10:40:46.622Z,2.00
2022-09-24T10:43:19.309Z,2.25
2022-09-24T10:45:56.595Z,1.90
2022-09-24T10:48:28.657Z,1.70
2022-09-24T10:51:29.354Z,2.15
2022-09-24T10:54:07.853Z,1.85
2022-09-24T10:56:46.463Z,1.90
2022-09-24T10:59:42.731Z,1.40
2022-09-24T11:02:39.808Z,1.25
2022-09-24T11:05:15.532Z,1.30
2022-09-24T11:07:56.570Z,1.25
2022-09-24T11:10:35.756Z,1.25
2022-09-24T11:13:31.652Z,1.27
2022-09-24T11:16:43.061Z,2.08
2022-09-24T11:19:27.042Z,1.75
2022-09-24T11:22:03.068Z,1.55
2022-09-24T11:24:54.561Z,1.40
2022-09-24T11:27:48.173Z,1.50
2022-09-24T11:30:19.296Z,1.50
2022-09-24T11:33:07.505Z,1.10
2022-09-24T11:36:01.412Z,1.15
2022-09-24T11:38:35.286Z,1.63
2022-09-24T11:41:23.065Z,1.50
2022-09-24T11:43:56.123Z,1.67
2022-09-24T11:46:29.586Z,1.50
2022-09-24T11:49:14.813Z,1.65
2022-09-24T11:51:57.666Z,1.58
2022-09-24T11:54:43.480Z,1.60
2022-09-24T11:57:22.017Z,1.73
2022-09-24T12:00:12.197Z,1.42
2022-09-24T12:02:50.573Z,1.30
2022-09-24T12:05:22.131Z,1.45
2022-09-24T12:07:58.654Z,1.73
2022-09-24T12:10:30.004Z,1.00
2022-09-24T12:13:12.672Z,1.20
2022-09-24T12:15:48.501Z,1.10
2022-09-24T12:18:29.016Z,1.40
2022-09-24T12:21:04.659Z,1.20
2022-09-24T12:23:35.680Z,1.48
2022-09-24T12:26:05.822Z,1.30
2022-09-24T12:29:02.219Z,1.20
2022-09-24T12:32:04.569Z,1.27
2022-09-24T12:34:37.407Z,1.05
2022-09-24T12:37:10.584Z,1.00
2022-09-24T12:39:48.033Z,1.10
2022-09-24T12:42:17.425Z,1.02
2022-09-24T12:44:51.346Z,1.25
2022-09-24T12:47:24.935Z,0.88
2022-09-24T12:49:58.099Z,1.48
2022-09-24T12:52:32.367Z,1.20
2022-09-24T12:55:02.457Z,1.17
2022-09-24T12:57:35.994Z,1.77
2022-09-24T13:00:31.757Z,1.00
2022-09-24T13:03:00.009Z,1.02
2022-09-24T13:05:32.304Z,1.55
2022-09-24T13:08:22.443Z,1.65
2022-09-24T13:11:00.924Z,1.30
2022-09-24T13:13:32.988Z,1.45
2022-09-24T13:16:02.055Z,1.27
2022-09-24T13:18:31.279Z,1.63
2022-09-24T13:21:06.982Z,1.50
2022-09-24T13:23:36.692Z,1.90
2022-09-24T13:26:07.421Z,1.20
2022-09-24T13:28:55.448Z,1.40
2022-09-24T13:31:22.647Z,1.50
2022-09-24T13:33:55.011Z,1.50
2022-09-24T13:36:28.768Z,1.23
2022-09-24T13:38:58.083Z,1.50
2022-09-24T13:41:40.106Z,1.58
2022-09-24T13:44:26.668Z,1.67
2022-09-24T13:47:05.127Z,1.30
2022-09-24T13:49:34.209Z,1.45
2022-09-24T13:52:28.509Z,1.60
2022-09-24T13:55:00.764Z,2.55
2022-09-24T13:57:29.209Z,1.70
2022-09-24T14:00:19.920Z,1.70
2022-09-24T14:02:53.070Z,1.52
2022-09-24T14:05:22.033Z,1.80
2022-09-24T14:08:02.111Z,1.60
2022-09-24T14:10:29.982Z,1.60
2022-09-24T14:13:09.000Z,1.90
2022-09-24T14:15:36.648Z,1.60
2022-09-24T14:18:04.854Z,1.65
2022-09-24T14:20:35.874Z,1.92
2022-09-24T14:23:04.971Z,1.92
2022-09-24T14:25:35.400Z,1.45
2022-09-24T14:28:04.460Z,1.80
2022-09-24T14:30:33.868Z,1.20
2022-09-24T14:33:12.474Z,1.42
2022-09-24T14:35:44.426Z,1.42
2022-09-24T14:38:20.790Z,1.45
2022-09-24T14:40:51.938Z,1.42
2022-09-24T14:43:31.256Z,1.45
2022-09-24T14:46:14.562Z,1.75
2022-09-24T14:48:42.286Z,1.55
2022-09-24T14:51:27.676Z,1.70
2022-09-24T14:54:04.088Z,1.38
2022-09-24T14:56:33.324Z,1.33
2022-09-24T14:59:00.797Z,1.70
2022-09-24T15:01:32.891Z,1.38
2022-09-24T15:04:14.328Z,1.85
2022-09-24T15:06:47.191Z,1.60
2022-09-24T15:09:28.885Z,1.85
2022-09-24T15:12:08.517Z,1.60
2022-09-24T15:14:36.180Z,2.15
2022-09-24T15:17:19.214Z,1.83
2022-09-24T15:19:47.542Z,2.05
2022-09-24T15:22:15.262Z,2.10
2022-09-24T15:24:42.056Z,2.03
2022-09-24T15:27:19.103Z,2.17
2022-09-24T15:29:46.034Z,2.03
2022-09-24T15:32:19.055Z,2.15
2022-09-24T15:34:47.438Z,2.33
2022-09-24T15:37:22.798Z,2.00
2022-09-24T15:39:50.800Z,1.50
2022-09-24T15:42:20.643Z,1.73
2022-09-24T15:44:48.037Z,2.08
2022-09-24T15:47:15.409Z,2.25
2022-09-24T15:49:42.509Z,1.90
2022-09-24T15:52:15.820Z,1.85
2022-09-24T15:54:42.971Z,1.77
2022-09-24T15:57:12.524Z,1.58
2022-09-24T15:59:40.416Z,2.53
2022-09-24T16:02:23.519Z,2.03
2022-09-24T16:04:50.462Z,2.10
2022-09-24T16:07:18.324Z,2.13
2022-09-24T16:09:45.543Z,2.08
2022-09-24T16:12:16.642Z,2.50
2022-09-24T16:14:44.713Z,2.10
2022-09-24T16:17:12.142Z,1.98
2022-09-24T16:19:38.987Z,2.08
2022-09-24T16:22:06.283Z,3.17
2022-09-24T16:24:34.225Z,2.22
2022-09-24T16:27:01.725Z,2.38
2022-09-24T16:29:29.561Z,2.42
2022-09-24T16:31:56.385Z,2.35
2022-09-24T16:34:23.176Z,2.00
2022-09-24T16:36:50.642Z,2.67
2022-09-24T16:39:17.427Z,2.78
2022-09-24T16:41:44.540Z,2.35
2022-09-24T16:44:15.277Z,1.98
2022-09-24T16:46:43.286Z,2.47
2022-09-24T16:49:10.652Z,2.50
2022-09-24T16:51:38.110Z,2.80
2022-09-24T16:54:08.291Z,2.80
2022-09-24T16:56:35.252Z,2.85
2022-09-24T16:59:02.581Z,2.35
2022-09-24T17:01:29.533Z,2.67
2022-09-24T17:03:58.747Z,2.78
2022-09-24T17:06:29.487Z,3.03
2022-09-24T17:09:15.878Z,3.42
2022-09-24T17:11:42.927Z,2.70
2022-09-24T17:14:12.396Z,2.88
2022-09-24T17:16:40.863Z,3.10
2022-09-24T17:19:09.452Z,2.90
2022-09-24T17:21:38.683Z,2.80
2022-09-24T17:24:06.161Z,3.58
2022-09-24T17:26:33.472Z,3.38
2022-09-24T17:29:00.372Z,3.42
2022-09-24T17:31:45.691Z,3.30
2022-09-24T17:34:15.165Z,3.13
2022-09-24T17:36:42.696Z,3.55
2022-09-24T17:39:12.898Z,3.40
2022-09-24T17:41:39.945Z,3.13
2022-09-24T17:44:07.290Z,3.67
2022-09-24T17:46:36.039Z,4.43
2022-09-24T17:49:04.683Z,4.07
2022-09-24T17:51:34.491Z,3.92
2022-09-24T17:54:06.811Z,3.40
2022-09-24T17:56:38.801Z,3.60
2022-09-24T17:59:10.761Z,4.20
2022-09-24T18:01:39.682Z,4.53
2022-09-24T18:04:13.061Z,5.07
2022-09-24T18:06:41.584Z,6.40
2022-09-24T18:09:10.217Z,5.65
2022-09-24T18:11:43.070Z,4.63
2022-09-24T18:14:14.790Z,4.90
2022-09-24T18:19:11.132Z,5.28
2022-09-24T18:21:38.678Z,5.40
2022-09-24T18:24:05.879Z,5.10
2022-09-24T18:26:39.270Z,4.78
2022-09-24T18:29:12.018Z,4.53
2022-09-24T18:31:39.370Z,6.00
2022-09-24T18:34:07.795Z,5.63
2022-09-24T18:36:37.946Z,5.65
2022-09-24T18:39:06.910Z,6.35
2022-09-24T18:41:34.426Z,5.50
2022-09-24T18:44:01.836Z,5.38
2022-09-24T18:46:47.073Z,4.72
2022-09-24T18:49:14.248Z,5.07
2022-09-24T18:51:41.180Z,4.82
2022-09-24T18:54:12.620Z,4.45
2022-09-24T18:59:11.823Z,4.88
2022-09-24T19:01:39.678Z,4.10
2022-09-24T19:04:11.181Z,4.55
2022-09-24T19:06:40.690Z,4.30
2022-09-24T19:09:09.944Z,4.57
2022-09-24T19:11:37.037Z,4.53
2022-09-24T19:14:04.183Z,4.68
2022-09-24T19:16:31.739Z,4.88
2022-09-24T19:19:00.045Z,4.93
2022-09-24T19:21:27.679Z,5.15
2022-09-24T19:23:56.885Z,4.80
2022-09-24T19:26:26.931Z,4.32
2022-09-24T19:28:54.010Z,5.28
2022-09-24T19:31:26.969Z,5.47
2022-09-24T19:33:54.346Z,5.45
2022-09-24T19:36:44.840Z,5.90
2022-09-24T19:39:17.251Z,6.20
2022-09-24T19:41:45.203Z,6.10
2022-09-24T19:44:13.132Z,6.05
2022-09-24T19:46:41.298Z,5.47
2022-09-24T19:49:08.678Z,6.30
2022-09-24T19:51:36.471Z,6.70
2022-09-24T19:54:08.050Z,6.68
2022-09-24T19:56:36.004Z,6.28
2022-09-24T19:59:04.542Z,7.50
2022-09-24T20:01:33.286Z,7.53
2022-09-24T20:04:03.771Z,6.85
2022-09-24T20:06:33.796Z,8.00
2022-09-24T20:09:01.274Z,7.88
2022-09-24T20:11:29.486Z,7.10
2022-09-24T20:13:57.044Z,8.15
2022-09-24T20:16:26.656Z,7.82
2022-09-24T20:18:57.694Z,8.02
2022-09-24T20:21:27.964Z,7.78
2022-09-24T20:23:56.723Z,8.18
2022-09-24T20:26:42.672Z,8.27
2022-09-24T20:29:10.544Z,8.45
2022-09-24T20:31:41.214Z,8.43
2022-09-24T20:34:09.296Z,8.52
2022-09-24T20:36:36.488Z,8.40
2022-09-24T20:39:04.120Z,9.50
2022-09-24T20:41:31.137Z,10.38
2022-09-24T20:43:58.186Z,9.85
2022-09-24T20:46:28.537Z,10.27
2022-09-24T20:49:00.200Z,10.80
2022-09-24T20:51:29.132Z,10.63
2022-09-24T20:53:58.127Z,9.95
2022-09-24T20:56:26.816Z,10.32
2022-09-24T20:58:54.387Z,10.40
2022-09-24T21:01:21.982Z,9.82
2022-09-24T21:03:50.172Z,10.77
2022-09-24T21:06:20.765Z,12.15
2022-09-24T21:08:47.722Z,13.15
2022-09-24T21:11:20.567Z,13.55
2022-09-24T21:13:52.848Z,12.70
2022-09-24T21:16:22.324Z,14.50
2022-09-24T21:18:50.836Z,14.80
2022-09-24T21:21:38.919Z,15.13
2022-09-24T21:24:10.119Z,14.63
2022-09-24T21:26:38.513Z,17.85
2022-09-24T21:29:08.562Z,15.52
2022-09-24T21:31:37.932Z,16.60
2022-09-24T21:34:06.948Z,15.77
2022-09-24T21:36:42.952Z,16.70
2022-09-24T21:39:16.124Z,16.25
2022-09-24T21:44:14.171Z,18.08
2022-09-24T21:46:42.959Z,17.80
2022-09-24T21:49:11.168Z,18.85
2022-09-24T21:51:38.522Z,19.98
2022-09-24T21:54:07.415Z,19.98
2022-09-24T21:56:35.557Z,19.80
2022-09-24T21:59:26.833Z,18.27
2022-09-24T22:01:55.231Z,20.85
2022-09-24T22:04:22.651Z,21.65
2022-09-24T22:06:51.045Z,23.48
2022-09-24T22:09:18.981Z,21.48
2022-09-24T22:11:46.834Z,22.38
2022-09-24T22:14:14.419Z,20.42
2022-09-24T22:16:41.671Z,21.85
2022-09-24T22:19:09.432Z,22.95
2022-09-24T22:21:36.678Z,20.27
2022-09-24T22:24:05.015Z,20.88
2022-09-24T22:26:32.956Z,19.17
2022-09-24T22:29:00.313Z,21.90
2022-09-24T22:31:27.772Z,21.60
2022-09-24T22:34:13.519Z,22.63
2022-09-24T22:36:40.953Z,21.02
2022-09-24T22:39:08.684Z,22.23
2022-09-24T22:41:40.147Z,21.38
2022-09-24T22:44:07.742Z,21.42
2022-09-24T22:46:36.302Z,23.05
2022-09-24T22:49:05.073Z,24.92
2022-09-24T22:51:33.676Z,25.63
2022-09-24T22:54:00.717Z,25.13
2022-09-24T22:56:28.528Z,24.73
2022-09-24T22:58:58.517Z,24.70
2022-09-24T23:01:28.927Z,23.30
2022-09-24T23:03:56.540Z,24.30
2022-09-24T23:06:24.153Z,25.42
2022-09-24T23:08:52.725Z,25.85
2022-09-24T23:11:29.113Z,24.77
2022-09-24T23:13:59.339Z,26.95
2022-09-24T23:16:28.991Z,25.42
2022-09-24T23:18:59.233Z,23.83
2022-09-24T23:21:28.430Z,24.73
2022-09-24T23:23:57.276Z,25.38
2022-09-24T23:26:25.698Z,25.90
2022-09-24T23:28:54.806Z,25.17
2022-09-24T23:31:25.389Z,23.20
2022-09-24T23:33:54.379Z,24.73
2022-09-24T23:36:22.301Z,26.35
2022-09-24T23:38:49.896Z,24.38
2022-09-24T23:41:17.357Z,26.23
2022-09-24T23:43:44.234Z,23.08
2022-09-24T23:46:12.883Z,22.63
2022-09-24T23:48:40.334Z,22.33
2022-09-24T23:51:08.277Z,21.48
2022-09-24T23:53:36.421Z,19.85
2022-09-24T23:56:04.741Z,19.17
2022-09-24T23:58:32.139Z,21.85
